createdAt,value
2023-04-04T00:00:42.734Z,2.12
2023-04-04T00:01:42.556Z,2.09
2023-04-04T00:02:42.561Z,2.06
2023-04-04T00:03:42.577Z,2.05
2023-04-04T00:04:42.549Z,2.00
2023-04-04T00:05:42.524Z,2.00
2023-04-04T00:06:42.462Z,2.03
2023-04-04T00:07:42.493Z,2.05
2023-04-04T00:08:42.437Z,2.07
2023-04-04T00:09:42.465Z,2.12
2023-04-04T00:10:42.765Z,2.16
2023-04-04T00:11:42.439Z,2.16
2023-04-04T00:12:42.440Z,2.17
2023-04-04T00:13:42.385Z,2.20
2023-04-04T00:14:42.356Z,2.23
2023-04-04T00:15:42.384Z,2.21
2023-04-04T00:16:42.344Z,2.20
2023-04-04T00:17:42.386Z,2.17
2023-04-04T00:18:42.332Z,2.07
2023-04-04T00:19:42.304Z,2.02
2023-04-04T00:20:42.583Z,1.99
2023-04-04T00:21:42.300Z,1.98
2023-04-04T00:22:42.268Z,1.95
2023-04-04T00:23:42.314Z,2.00
2023-04-04T00:24:42.233Z,2.00
2023-04-04T00:25:42.247Z,1.95
2023-04-04T00:26:42.234Z,1.91
2023-04-04T00:27:42.228Z,1.88
2023-04-04T00:28:42.184Z,1.87
2023-04-04T00:29:42.209Z,1.90
2023-04-04T00:30:42.341Z,1.90
2023-04-04T00:31:42.211Z,1.86
2023-04-04T00:32:42.385Z,1.86
2023-04-04T00:33:42.143Z,1.84
2023-04-04T00:34:42.120Z,1.83
2023-04-04T00:35:42.281Z,1.79
2023-04-04T00:36:42.119Z,1.77
2023-04-04T00:37:42.114Z,1.73
2023-04-04T00:38:42.062Z,1.73
2023-04-04T00:39:42.073Z,1.76
2023-04-04T00:40:42.206Z,1.73
2023-04-04T00:41:42.055Z,1.76
2023-04-04T00:42:41.993Z,1.79
2023-04-04T00:43:42.019Z,1.84
2023-04-04T00:44:41.984Z,1.87
2023-04-04T00:45:42.019Z,1.86
2023-04-04T00:46:41.945Z,1.86
2023-04-04T00:47:41.982Z,1.86
2023-04-04T00:48:41.936Z,1.88
2023-04-04T00:49:41.966Z,1.93
2023-04-04T00:50:42.171Z,1.93
2023-04-04T00:51:41.970Z,1.93
2023-04-04T00:52:41.932Z,1.93
2023-04-04T00:53:41.932Z,1.91
2023-04-04T00:54:41.862Z,1.87
2023-04-04T00:55:41.903Z,1.86
2023-04-04T00:56:41.849Z,1.81
2023-04-04T00:57:41.831Z,1.81
2023-04-04T00:58:41.794Z,1.84
2023-04-04T00:59:41.862Z,1.83
2023-04-04T01:00:42.000Z,1.76
2023-04-04T01:01:41.935Z,1.76
2023-04-04T01:02:47.938Z,1.80
2023-04-04T01:03:41.763Z,1.76
2023-04-04T01:04:41.760Z,1.79
2023-04-04T01:05:41.763Z,1.79
2023-04-04T01:06:41.709Z,1.76
2023-04-04T01:07:41.710Z,1.76
2023-04-04T01:08:41.664Z,1.73
2023-04-04T01:09:41.701Z,1.68
2023-04-04T01:10:41.922Z,1.63
2023-04-04T01:11:41.644Z,1.62
2023-04-04T01:12:41.639Z,1.59
2023-04-04T01:13:41.619Z,1.59
2023-04-04T01:14:41.586Z,1.60
2023-04-04T01:15:41.595Z,1.55
2023-04-04T01:16:41.599Z,1.54
2023-04-04T01:17:41.606Z,1.54
2023-04-04T01:18:41.561Z,1.58
2023-04-04T01:19:41.536Z,1.55
2023-04-04T01:20:41.617Z,1.52
2023-04-04T01:21:41.514Z,1.51
2023-04-04T01:22:41.515Z,1.52
2023-04-04T01:23:41.490Z,1.50
2023-04-04T01:24:41.488Z,1.48
2023-04-04T01:25:41.467Z,1.47
2023-04-04T01:26:41.437Z,1.45
2023-04-04T01:27:41.446Z,1.42
2023-04-04T01:28:41.437Z,1.42
2023-04-04T01:29:41.402Z,1.42
2023-04-04T01:30:41.568Z,1.40
2023-04-04T01:31:41.423Z,1.40
2023-04-04T01:32:41.465Z,1.47
2023-04-04T01:33:41.375Z,1.50
2023-04-04T01:34:41.333Z,1.45
2023-04-04T01:35:41.347Z,1.42
2023-04-04T01:36:41.303Z,1.41
2023-04-04T01:37:41.321Z,1.36
2023-04-04T01:38:41.316Z,1.30
2023-04-04T01:39:41.315Z,1.27
2023-04-04T01:40:41.491Z,1.24
2023-04-04T01:41:41.263Z,1.26
2023-04-04T01:42:41.214Z,1.26
2023-04-04T01:43:41.259Z,1.20
2023-04-04T01:44:41.195Z,1.16
2023-04-04T01:45:41.226Z,1.16
2023-04-04T01:46:41.157Z,1.15
2023-04-04T01:47:41.221Z,1.15
2023-04-04T01:48:41.145Z,1.15
2023-04-04T01:49:41.162Z,1.15
2023-04-04T01:50:41.282Z,1.12
2023-04-04T01:51:41.128Z,1.14
2023-04-04T01:52:41.125Z,1.15
2023-04-04T01:53:41.106Z,1.12
2023-04-04T01:54:41.081Z,1.12
2023-04-04T01:55:41.080Z,1.11
2023-04-04T01:56:41.037Z,1.12
2023-04-04T01:57:41.084Z,1.14
2023-04-04T01:58:41.004Z,1.16
2023-04-04T01:59:41.029Z,1.18
2023-04-04T02:00:41.150Z,1.18
2023-04-04T02:01:41.105Z,1.20
2023-04-04T02:02:41.006Z,1.20
2023-04-04T02:03:41.043Z,1.20
2023-04-04T02:04:40.951Z,1.18
2023-04-04T02:05:40.973Z,1.14
2023-04-04T02:06:40.956Z,1.08
2023-04-04T02:07:40.958Z,1.06
2023-04-04T02:08:40.884Z,1.06
2023-04-04T02:09:40.909Z,1.08
2023-04-04T02:10:41.098Z,1.09
2023-04-04T02:11:40.873Z,1.12
2023-04-04T02:12:40.868Z,1.14
2023-04-04T02:13:40.866Z,1.14
2023-04-04T02:14:40.820Z,1.14
2023-04-04T02:15:40.889Z,1.12
2023-04-04T02:16:40.789Z,1.08
2023-04-04T02:17:40.800Z,1.04
2023-04-04T02:18:40.754Z,1.04
2023-04-04T02:19:40.758Z,1.04
2023-04-04T02:20:41.057Z,1.06
2023-04-04T02:21:40.753Z,1.06
2023-04-04T02:22:40.749Z,1.08
2023-04-04T02:23:40.730Z,1.06
2023-04-04T02:24:40.675Z,1.05
2023-04-04T02:25:40.684Z,1.02
2023-04-04T02:26:40.668Z,0.93
2023-04-04T02:27:40.683Z,0.87
2023-04-04T02:28:40.624Z,0.87
2023-04-04T02:29:40.629Z,0.80
2023-04-04T02:30:41.038Z,0.72
2023-04-04T02:31:40.708Z,0.75
2023-04-04T02:32:40.637Z,0.73
2023-04-04T02:33:40.589Z,0.70
2023-04-04T02:34:40.543Z,0.70
2023-04-04T02:35:40.583Z,0.70
2023-04-04T02:36:40.522Z,0.69
2023-04-04T02:37:40.561Z,0.66
2023-04-04T02:38:40.495Z,0.60
2023-04-04T02:39:40.521Z,0.58
2023-04-04T02:40:40.685Z,0.57
2023-04-04T02:41:40.466Z,0.55
2023-04-04T02:42:40.491Z,0.51
2023-04-04T02:43:40.442Z,0.50
2023-04-04T02:44:40.444Z,0.50
2023-04-04T02:45:40.437Z,0.50
2023-04-04T02:46:40.493Z,0.50
2023-04-04T02:47:40.463Z,0.50
2023-04-04T02:48:40.360Z,0.50
2023-04-04T02:49:40.406Z,0.50
2023-04-04T02:50:40.580Z,0.53
2023-04-04T02:51:40.361Z,0.49
2023-04-04T02:52:40.323Z,0.49
2023-04-04T02:53:40.323Z,0.47
2023-04-04T02:54:40.311Z,0.50
2023-04-04T02:55:40.320Z,0.51
2023-04-04T02:56:40.289Z,0.49
2023-04-04T02:57:40.295Z,0.51
2023-04-04T02:58:41.587Z,0.51
2023-04-04T02:59:40.259Z,0.49
2023-04-04T03:00:40.590Z,0.47
2023-04-04T03:01:40.265Z,0.42
2023-04-04T03:02:40.238Z,0.44
2023-04-04T03:03:40.258Z,0.49
2023-04-04T03:04:40.169Z,0.49
2023-04-04T03:05:40.170Z,0.50
2023-04-04T03:06:40.147Z,0.50
2023-04-04T03:07:40.141Z,0.47
2023-04-04T03:08:40.122Z,0.47
2023-04-04T03:09:40.113Z,0.51
2023-04-04T03:10:40.238Z,0.53
2023-04-04T03:11:40.099Z,0.50
2023-04-04T03:12:40.056Z,0.51
2023-04-04T03:13:40.155Z,0.50
2023-04-04T03:14:40.067Z,0.50
2023-04-04T03:15:40.062Z,0.49
2023-04-04T03:16:40.045Z,0.46
2023-04-04T03:17:40.836Z,0.46
2023-04-04T03:18:39.996Z,0.46
2023-04-04T03:19:39.990Z,0.46
2023-04-04T03:20:40.163Z,0.46
2023-04-04T03:21:39.977Z,0.46
2023-04-04T03:22:39.927Z,0.44
2023-04-04T03:23:39.992Z,0.38
2023-04-04T03:24:40.296Z,0.38
2023-04-04T03:25:39.927Z,0.33
2023-04-04T03:26:39.915Z,0.33
2023-04-04T03:27:39.881Z,0.35
2023-04-04T03:28:39.853Z,0.32
2023-04-04T03:29:39.860Z,0.32
2023-04-04T03:30:40.209Z,0.36
2023-04-04T03:31:39.872Z,0.38
2023-04-04T03:32:39.839Z,0.33
2023-04-04T03:33:39.810Z,0.32
2023-04-04T03:34:39.773Z,0.32
2023-04-04T03:35:39.964Z,0.32
2023-04-04T03:36:39.787Z,0.35
2023-04-04T03:37:39.743Z,0.38
2023-04-04T03:38:39.739Z,0.38
2023-04-04T03:39:39.718Z,0.35
2023-04-04T03:40:40.058Z,0.31
2023-04-04T03:41:39.713Z,0.28
2023-04-04T03:42:39.694Z,0.26
2023-04-04T03:43:39.677Z,0.24
2023-04-04T03:44:39.663Z,0.29
2023-04-04T03:45:39.651Z,0.33
2023-04-04T03:46:39.653Z,0.32
2023-04-04T03:47:39.647Z,0.32
2023-04-04T03:48:39.630Z,0.31
2023-04-04T03:49:39.582Z,0.33
2023-04-04T03:50:39.744Z,0.35
2023-04-04T03:51:39.562Z,0.33
2023-04-04T03:52:39.577Z,0.35
2023-04-04T03:53:39.567Z,0.35
2023-04-04T03:54:39.547Z,0.33
2023-04-04T03:55:39.490Z,0.32
2023-04-04T03:56:39.504Z,0.24
2023-04-04T03:57:39.479Z,0.21
2023-04-04T03:58:39.506Z,0.20
2023-04-04T03:59:39.490Z,0.26
2023-04-04T04:00:39.666Z,0.28
2023-04-04T04:01:39.411Z,0.29
2023-04-04T04:02:39.530Z,0.24
2023-04-04T04:03:39.452Z,0.23
2023-04-04T04:04:39.554Z,0.23
2023-04-04T04:05:39.384Z,0.24
2023-04-04T04:06:39.381Z,0.24
2023-04-04T04:07:39.369Z,0.28
2023-04-04T04:08:39.377Z,0.29
2023-04-04T04:09:39.311Z,0.31
2023-04-04T04:10:39.645Z,0.31
2023-04-04T04:11:39.323Z,0.35
2023-04-04T04:12:39.315Z,0.36
2023-04-04T04:13:39.274Z,0.32
2023-04-04T04:14:39.267Z,0.26
2023-04-04T04:15:39.273Z,0.28
2023-04-04T04:16:39.256Z,0.26
2023-04-04T04:17:39.252Z,0.28
2023-04-04T04:18:39.221Z,0.26
2023-04-04T04:19:39.188Z,0.23
2023-04-04T04:20:39.456Z,0.20
2023-04-04T04:21:39.163Z,0.20
2023-04-04T04:22:39.177Z,0.18
2023-04-04T04:23:39.164Z,0.18
2023-04-04T04:24:39.150Z,0.17
2023-04-04T04:25:39.118Z,0.15
2023-04-04T04:26:39.121Z,0.14
2023-04-04T04:27:39.094Z,0.11
2023-04-04T04:28:39.136Z,0.07
2023-04-04T04:29:39.083Z,0.04
2023-04-04T04:30:39.213Z,0.04
2023-04-04T04:31:39.100Z,0.08
2023-04-04T04:32:39.088Z,0.13
2023-04-04T04:33:39.011Z,0.13
2023-04-04T04:34:39.033Z,0.11
2023-04-04T04:35:39.085Z,0.04
2023-04-04T04:36:39.008Z,0.08
2023-04-04T04:37:38.989Z,0.04
2023-04-04T04:38:38.971Z,0.03
2023-04-04T04:39:38.963Z,0.10
2023-04-04T04:40:39.121Z,0.11
2023-04-04T04:41:38.907Z,0.13
2023-04-04T04:42:38.969Z,0.13
2023-04-04T04:43:38.890Z,0.13
2023-04-04T04:44:38.897Z,0.17
2023-04-04T04:45:38.877Z,0.13
2023-04-04T04:46:38.979Z,0.13
2023-04-04T04:47:38.893Z,0.08
2023-04-04T04:48:38.883Z,0.04
2023-04-04T04:49:38.842Z,0.04
2023-04-04T04:50:39.089Z,0.07
2023-04-04T04:51:38.780Z,0.02
2023-04-04T04:52:38.794Z,0.02
2023-04-04T04:53:38.796Z,0.03
2023-04-04T04:54:38.794Z,0.03
2023-04-04T04:55:38.727Z,-0.05
2023-04-04T04:56:38.771Z,-0.07
2023-04-04T04:57:38.723Z,-0.08
2023-04-04T04:58:38.740Z,-0.05
2023-04-04T04:59:38.715Z,-0.04
2023-04-04T05:00:39.022Z,-0.04
2023-04-04T05:01:38.744Z,-0.04
2023-04-04T05:02:38.737Z,-0.05
2023-04-04T05:03:38.653Z,-0.07
2023-04-04T05:04:38.637Z,-0.07
2023-04-04T05:05:38.612Z,-0.10
2023-04-04T05:06:38.611Z,-0.11
2023-04-04T05:07:38.585Z,-0.15
2023-04-04T05:08:38.617Z,-0.18
2023-04-04T05:09:38.554Z,-0.16
2023-04-04T05:10:38.869Z,-0.15
2023-04-04T05:11:38.526Z,-0.15
2023-04-04T05:12:38.554Z,-0.16
2023-04-04T05:13:38.538Z,-0.14
2023-04-04T05:14:38.507Z,-0.11
2023-04-04T05:15:38.465Z,-0.10
2023-04-04T05:16:38.518Z,-0.10
2023-04-04T05:17:38.560Z,-0.07
2023-04-04T05:18:38.470Z,-0.08
2023-04-04T05:19:38.478Z,-0.08
2023-04-04T05:20:38.711Z,-0.10
2023-04-04T05:21:38.402Z,-0.10
2023-04-04T05:22:38.414Z,-0.11
2023-04-04T05:23:38.361Z,-0.10
2023-04-04T05:24:38.422Z,-0.11
2023-04-04T05:25:38.352Z,-0.15
2023-04-04T05:26:38.365Z,-0.19
2023-04-04T05:27:38.308Z,-0.18
2023-04-04T05:28:38.387Z,-0.14
2023-04-04T05:29:38.287Z,-0.10
2023-04-04T05:30:38.532Z,-0.10
2023-04-04T05:31:38.330Z,-0.11
2023-04-04T05:32:38.308Z,-0.10
2023-04-04T05:33:38.263Z,-0.08
2023-04-04T05:34:38.252Z,-0.10
2023-04-04T05:35:38.294Z,-0.10
2023-04-04T05:36:38.294Z,-0.10
2023-04-04T05:37:38.215Z,-0.08
2023-04-04T05:38:38.205Z,-0.05
2023-04-04T05:39:38.191Z,-0.03
2023-04-04T05:40:38.404Z,-0.01
2023-04-04T05:41:38.163Z,0.02
2023-04-04T05:42:38.169Z,0.03
2023-04-04T05:43:38.106Z,0.04
2023-04-04T05:44:38.149Z,0.07
2023-04-04T05:45:40.485Z,0.10
2023-04-04T05:46:38.135Z,0.14
2023-04-04T05:47:38.206Z,0.15
2023-04-04T05:48:38.074Z,0.20
2023-04-04T05:49:38.046Z,0.23
2023-04-04T05:50:38.274Z,0.28
2023-04-04T05:51:38.031Z,0.31
2023-04-04T05:52:38.042Z,0.32
2023-04-04T05:53:37.987Z,0.29
2023-04-04T05:54:37.990Z,0.32
2023-04-04T05:55:37.969Z,0.36
2023-04-04T05:56:37.972Z,0.38
2023-04-04T05:57:37.979Z,0.38
2023-04-04T05:58:37.960Z,0.42
2023-04-04T05:59:37.911Z,0.44
2023-04-04T06:00:38.423Z,0.47
2023-04-04T06:01:37.911Z,0.49
2023-04-04T06:02:37.982Z,0.49
2023-04-04T06:03:38.150Z,0.53
2023-04-04T06:04:37.874Z,0.57
2023-04-04T06:05:37.864Z,0.58
2023-04-04T06:06:37.874Z,0.61
2023-04-04T06:07:37.813Z,0.65
2023-04-04T06:08:50.570Z,0.66
2023-04-04T06:09:37.774Z,0.69
2023-04-04T06:10:38.224Z,0.72
2023-04-04T06:11:37.798Z,0.76
2023-04-04T06:12:37.767Z,0.76
2023-04-04T06:13:37.734Z,0.79
2023-04-04T06:14:37.760Z,0.80
2023-04-04T06:15:37.744Z,0.87
2023-04-04T06:16:37.783Z,0.90
2023-04-04T06:17:37.756Z,0.91
2023-04-04T06:18:37.703Z,0.94
2023-04-04T06:19:37.681Z,0.94
2023-04-04T06:20:37.961Z,0.97
2023-04-04T06:21:37.627Z,1.00
2023-04-04T06:22:37.682Z,1.04
2023-04-04T06:23:37.726Z,1.06
2023-04-04T06:24:37.854Z,1.09
2023-04-04T06:25:37.645Z,1.11
2023-04-04T06:26:37.607Z,1.15
2023-04-04T06:27:37.575Z,1.18
2023-04-04T06:28:37.571Z,1.23
2023-04-04T06:29:37.531Z,1.26
2023-04-04T06:30:38.036Z,1.27
2023-04-04T06:31:37.554Z,1.29
2023-04-04T06:32:37.559Z,1.29
2023-04-04T06:33:37.478Z,1.32
2023-04-04T06:34:37.541Z,1.34
2023-04-04T06:35:37.454Z,1.34
2023-04-04T06:36:37.485Z,1.37
2023-04-04T06:37:37.446Z,1.41
2023-04-04T06:38:37.461Z,1.44
2023-04-04T06:39:37.402Z,1.47
2023-04-04T06:40:37.609Z,1.51
2023-04-04T06:41:37.408Z,1.54
2023-04-04T06:42:37.393Z,1.55
2023-04-04T06:43:37.352Z,1.55
2023-04-04T06:44:37.372Z,1.55
2023-04-04T06:45:37.328Z,1.59
2023-04-04T06:46:37.398Z,1.62
2023-04-04T06:47:37.364Z,1.63
2023-04-04T06:48:37.348Z,1.66
2023-04-04T06:49:37.275Z,1.69
2023-04-04T06:50:37.392Z,1.76
2023-04-04T06:51:37.249Z,1.83
2023-04-04T06:52:39.581Z,1.90
2023-04-04T06:53:37.213Z,1.95
2023-04-04T06:54:37.268Z,1.95
2023-04-04T06:55:37.219Z,1.95
2023-04-04T06:56:37.202Z,2.00
2023-04-04T06:57:37.176Z,2.06
2023-04-04T06:58:37.174Z,2.09
2023-04-04T06:59:37.155Z,2.12
2023-04-04T07:00:37.401Z,2.14
2023-04-04T07:01:37.260Z,2.17
2023-04-04T07:02:37.306Z,2.18
2023-04-04T07:03:37.089Z,2.18
2023-04-04T07:04:37.111Z,2.21
2023-04-04T07:05:37.100Z,2.24
2023-04-04T07:06:37.082Z,2.28
2023-04-04T07:07:37.037Z,2.34
2023-04-04T07:08:37.274Z,2.39
2023-04-04T07:09:37.068Z,2.45
2023-04-04T07:10:38.054Z,2.45
2023-04-04T07:11:36.994Z,2.49
2023-04-04T07:12:37.030Z,2.49
2023-04-04T07:13:36.973Z,2.54
2023-04-04T07:14:37.010Z,2.59
2023-04-04T07:15:36.964Z,2.64
2023-04-04T07:16:36.985Z,2.69
2023-04-04T07:17:36.947Z,2.74
2023-04-04T07:18:36.930Z,2.72
2023-04-04T07:19:36.876Z,2.78
2023-04-04T07:20:37.163Z,2.82
2023-04-04T07:21:36.837Z,2.93
2023-04-04T07:22:36.889Z,2.95
2023-04-04T07:23:36.850Z,2.99
2023-04-04T07:24:36.836Z,3.03
2023-04-04T07:25:36.812Z,3.08
2023-04-04T07:26:36.818Z,3.10
2023-04-04T07:27:36.814Z,2.99
2023-04-04T07:28:36.778Z,2.99
2023-04-04T07:29:36.762Z,3.10
2023-04-04T07:30:36.766Z,3.15
2023-04-04T07:31:36.792Z,3.24
2023-04-04T07:32:36.755Z,3.32
2023-04-04T07:33:36.696Z,3.39
2023-04-04T07:34:36.738Z,3.36
2023-04-04T07:35:36.730Z,3.47
2023-04-04T07:36:36.704Z,3.54
2023-04-04T07:37:36.635Z,3.65
2023-04-04T07:38:36.662Z,3.70
2023-04-04T07:39:36.628Z,3.76
2023-04-04T07:40:36.699Z,3.86
2023-04-04T07:41:36.592Z,3.93
2023-04-04T07:42:36.634Z,3.98
2023-04-04T07:43:36.582Z,4.06
2023-04-04T07:44:36.585Z,4.08
2023-04-04T07:45:36.544Z,4.02
2023-04-04T07:46:36.590Z,3.90
2023-04-04T07:47:36.569Z,3.78
2023-04-04T07:48:36.538Z,3.75
2023-04-04T07:49:36.507Z,3.91
2023-04-04T07:50:36.509Z,4.06
2023-04-04T07:51:36.457Z,4.20
2023-04-04T07:52:36.500Z,4.41
2023-04-04T07:53:36.484Z,4.51
2023-04-04T07:54:36.444Z,4.45
2023-04-04T07:55:36.458Z,4.27
2023-04-04T07:56:36.399Z,4.24
2023-04-04T07:57:36.417Z,4.33
2023-04-04T07:58:36.408Z,4.45
2023-04-04T07:59:36.372Z,4.63
2023-04-04T08:00:36.370Z,4.73
2023-04-04T08:01:36.351Z,4.82
2023-04-04T08:02:36.465Z,4.84
2023-04-04T08:03:36.464Z,4.96
2023-04-04T08:04:36.315Z,4.92
2023-04-04T08:05:36.324Z,4.86
2023-04-04T08:06:36.294Z,4.89
2023-04-04T08:07:36.281Z,4.91
2023-04-04T08:08:36.241Z,5.02
2023-04-04T08:09:36.269Z,5.07
2023-04-04T08:10:36.212Z,5.20
2023-04-04T08:11:36.249Z,5.28
2023-04-04T08:12:36.257Z,5.21
2023-04-04T08:13:36.237Z,5.21
2023-04-04T08:14:36.174Z,5.24
2023-04-04T08:15:36.274Z,5.00
2023-04-04T08:16:36.145Z,4.85
2023-04-04T08:17:36.181Z,4.99
2023-04-04T08:18:36.108Z,5.20
2023-04-04T08:19:36.111Z,5.35
2023-04-04T08:20:36.080Z,5.45
2023-04-04T08:21:36.124Z,5.46
2023-04-04T08:22:36.073Z,5.51
2023-04-04T08:23:36.100Z,5.54
2023-04-04T08:24:36.069Z,5.61
2023-04-04T08:25:36.045Z,5.67
2023-04-04T08:26:36.010Z,5.71
2023-04-04T08:27:36.050Z,5.56
2023-04-04T08:28:36.059Z,5.43
2023-04-04T08:29:35.970Z,5.49
2023-04-04T08:30:35.970Z,5.63
2023-04-04T08:31:36.079Z,5.56
2023-04-04T08:32:35.951Z,5.56
2023-04-04T08:33:46.741Z,5.63
2023-04-04T08:34:35.940Z,5.90
2023-04-04T08:35:35.914Z,6.11
2023-04-04T08:36:35.875Z,6.34
2023-04-04T08:37:35.911Z,6.33
2023-04-04T08:38:35.851Z,6.11
2023-04-04T08:39:35.922Z,6.18
2023-04-04T08:40:35.842Z,6.28
2023-04-04T08:41:35.831Z,6.12
2023-04-04T08:42:35.814Z,6.03
2023-04-04T08:43:35.800Z,6.08
2023-04-04T08:44:35.794Z,6.00
2023-04-04T08:45:35.797Z,5.97
2023-04-04T08:46:35.802Z,6.04
2023-04-04T08:47:35.791Z,6.21
2023-04-04T08:48:35.758Z,6.34
2023-04-04T08:49:35.754Z,6.43
2023-04-04T08:50:35.729Z,6.52
2023-04-04T08:51:35.700Z,6.55
2023-04-04T08:52:35.664Z,6.43
2023-04-04T08:53:35.690Z,6.21
2023-04-04T08:54:35.665Z,6.18
2023-04-04T08:55:35.664Z,6.12
2023-04-04T08:56:35.612Z,5.96
2023-04-04T08:57:35.614Z,6.04
2023-04-04T08:58:35.592Z,5.91
2023-04-04T08:59:35.755Z,5.81
2023-04-04T09:00:35.614Z,5.75
2023-04-04T09:01:35.573Z,5.60
2023-04-04T09:02:35.599Z,5.79
2023-04-04T09:03:35.670Z,6.03
2023-04-04T09:04:35.537Z,6.28
2023-04-04T09:05:35.540Z,6.41
2023-04-04T09:06:35.603Z,6.15
2023-04-04T09:07:38.616Z,6.03
2023-04-04T09:08:35.464Z,5.93
2023-04-04T09:09:35.506Z,5.93
2023-04-04T09:10:35.445Z,5.86
2023-04-04T09:11:35.450Z,5.85
2023-04-04T09:12:35.407Z,5.83
2023-04-04T09:13:35.438Z,5.99
2023-04-04T09:14:35.375Z,6.22
2023-04-04T09:15:35.392Z,6.41
2023-04-04T09:16:35.385Z,6.56
2023-04-04T09:17:35.377Z,6.73
2023-04-04T09:18:35.313Z,6.88
2023-04-04T09:19:35.364Z,6.99
2023-04-04T09:20:35.305Z,6.70
2023-04-04T09:21:35.313Z,6.56
2023-04-04T09:22:35.299Z,6.56
2023-04-04T09:23:35.486Z,6.58
2023-04-04T09:24:35.255Z,6.66
2023-04-04T09:25:35.261Z,6.80
2023-04-04T09:26:35.228Z,6.71
2023-04-04T09:27:35.236Z,6.52
2023-04-04T09:28:35.216Z,6.25
2023-04-04T09:29:35.236Z,6.12
2023-04-04T09:30:35.164Z,6.17
2023-04-04T09:31:35.246Z,6.38
2023-04-04T09:32:35.170Z,6.43
2023-04-04T09:33:35.169Z,6.46
2023-04-04T09:34:35.122Z,6.61
2023-04-04T09:35:35.147Z,6.84
2023-04-04T09:36:35.109Z,7.13
2023-04-04T09:37:35.118Z,7.34
2023-04-04T09:38:35.064Z,7.20
2023-04-04T09:39:35.133Z,6.85
2023-04-04T09:40:35.093Z,6.66
2023-04-04T09:41:35.075Z,6.52
2023-04-04T09:42:35.035Z,6.55
2023-04-04T09:43:35.702Z,6.55
2023-04-04T09:44:35.014Z,6.59
2023-04-04T09:45:34.988Z,6.61
2023-04-04T09:46:34.994Z,6.73
2023-04-04T09:47:35.010Z,6.76
2023-04-04T09:48:34.953Z,6.84
2023-04-04T09:49:34.941Z,7.06
2023-04-04T09:50:34.904Z,7.24
2023-04-04T09:51:34.944Z,7.28
2023-04-04T09:52:34.876Z,7.32
2023-04-04T09:53:34.888Z,7.46
2023-04-04T09:54:34.847Z,7.67
2023-04-04T09:55:34.929Z,7.93
2023-04-04T09:56:34.834Z,8.10
2023-04-04T09:57:34.856Z,7.80
2023-04-04T09:58:34.809Z,7.40
2023-04-04T09:59:34.854Z,7.27
2023-04-04T10:00:34.750Z,6.98
2023-04-04T10:01:35.694Z,6.84
2023-04-04T10:02:34.798Z,6.62
2023-04-04T10:03:34.760Z,6.64
2023-04-04T10:04:34.740Z,6.73
2023-04-04T10:05:34.756Z,6.85
2023-04-04T10:06:34.728Z,6.94
2023-04-04T10:07:34.708Z,7.07
2023-04-04T10:08:34.687Z,7.21
2023-04-04T10:09:34.664Z,7.37
2023-04-04T10:10:34.629Z,7.48
2023-04-04T10:11:34.641Z,7.50
2023-04-04T10:12:34.644Z,7.58
2023-04-04T10:13:34.610Z,7.69
2023-04-04T10:14:34.632Z,7.82
2023-04-04T10:15:34.592Z,7.77
2023-04-04T10:16:34.608Z,7.67
2023-04-04T10:17:34.598Z,7.57
2023-04-04T10:18:34.560Z,7.52
2023-04-04T10:19:34.590Z,7.35
2023-04-04T10:20:34.515Z,7.12
2023-04-04T10:21:34.522Z,7.17
2023-04-04T10:22:34.463Z,7.35
2023-04-04T10:23:34.493Z,7.57
2023-04-04T10:24:34.461Z,7.58
2023-04-04T10:25:34.445Z,7.46
2023-04-04T10:26:34.472Z,7.50
2023-04-04T10:27:34.457Z,7.71
2023-04-04T10:28:34.471Z,7.89
2023-04-04T10:29:34.385Z,8.05
2023-04-04T10:30:34.366Z,7.98
2023-04-04T10:31:34.479Z,7.97
2023-04-04T10:32:34.403Z,7.82
2023-04-04T10:33:34.363Z,7.40
2023-04-04T10:34:34.326Z,7.27
2023-04-04T10:35:34.352Z,7.24
2023-04-04T10:36:34.288Z,7.23
2023-04-04T10:37:34.341Z,7.21
2023-04-04T10:38:34.252Z,7.13
2023-04-04T10:39:34.273Z,7.24
2023-04-04T10:40:34.246Z,7.31
2023-04-04T10:41:34.242Z,7.48
2023-04-04T10:42:34.245Z,7.63
2023-04-04T10:43:34.226Z,7.63
2023-04-04T10:44:34.241Z,7.32
2023-04-04T10:45:34.205Z,7.24
2023-04-04T10:46:34.236Z,7.15
2023-04-04T10:47:34.229Z,7.13
2023-04-04T10:48:34.147Z,7.15
2023-04-04T10:49:34.166Z,7.21
2023-04-04T10:50:34.109Z,7.23
2023-04-04T10:51:42.006Z,7.17
2023-04-04T10:52:34.113Z,7.20
2023-04-04T10:53:34.116Z,7.23
2023-04-04T10:54:34.046Z,7.28
2023-04-04T10:55:34.078Z,7.30
2023-04-04T10:56:34.019Z,7.28
2023-04-04T10:57:34.025Z,7.27
2023-04-04T10:58:34.033Z,7.20
2023-04-04T10:59:34.161Z,7.17
2023-04-04T11:00:34.023Z,7.30
2023-04-04T11:01:33.981Z,7.42
2023-04-04T11:02:33.974Z,7.57
2023-04-04T11:03:33.978Z,7.58
2023-04-04T11:04:33.994Z,7.53
2023-04-04T11:05:33.920Z,7.48
2023-04-04T11:06:33.882Z,7.55
2023-04-04T11:07:33.894Z,7.60
2023-04-04T11:08:33.908Z,7.61
2023-04-04T11:09:33.879Z,7.72
2023-04-04T11:10:33.904Z,7.79
2023-04-04T11:11:33.853Z,7.86
2023-04-04T11:12:33.845Z,7.97
2023-04-04T11:13:33.854Z,8.01
2023-04-04T11:14:33.842Z,7.97
2023-04-04T11:15:33.832Z,7.75
2023-04-04T11:16:33.872Z,7.52
2023-04-04T11:17:33.791Z,7.40
2023-04-04T11:18:34.389Z,7.43
2023-04-04T11:19:33.757Z,7.61
2023-04-04T11:20:33.735Z,7.74
2023-04-04T11:21:33.743Z,7.87
2023-04-04T11:22:33.688Z,7.97
2023-04-04T11:23:33.711Z,8.02
2023-04-04T11:24:33.660Z,8.15
2023-04-04T11:25:33.743Z,8.04
2023-04-04T11:26:33.663Z,7.90
2023-04-04T11:27:33.699Z,7.93
2023-04-04T11:28:33.604Z,7.92
2023-04-04T11:29:33.624Z,8.00
2023-04-04T11:30:33.618Z,7.77
2023-04-04T11:31:33.678Z,7.74
2023-04-04T11:32:33.619Z,7.83
2023-04-04T11:33:33.644Z,7.95
2023-04-04T11:34:33.574Z,8.05
2023-04-04T11:35:33.588Z,8.15
2023-04-04T11:36:33.541Z,8.22
2023-04-04T11:37:33.529Z,8.20
2023-04-04T11:38:33.486Z,8.08
2023-04-04T11:39:33.492Z,7.95
2023-04-04T11:40:33.459Z,7.87
2023-04-04T11:41:33.487Z,7.95
2023-04-04T11:42:33.430Z,7.98
2023-04-04T11:43:33.438Z,8.08
2023-04-04T11:44:33.439Z,8.07
2023-04-04T11:45:33.441Z,7.95
2023-04-04T11:46:33.424Z,7.97
2023-04-04T11:47:34.326Z,8.02
2023-04-04T11:48:33.357Z,8.15
2023-04-04T11:49:33.399Z,8.26
2023-04-04T11:50:33.352Z,8.40
2023-04-04T11:51:33.389Z,8.26
2023-04-04T11:52:33.342Z,8.22
2023-04-04T11:53:33.342Z,8.16
2023-04-04T11:54:33.278Z,8.18
2023-04-04T11:55:33.308Z,8.18
2023-04-04T11:56:33.264Z,8.11
2023-04-04T11:57:33.314Z,8.02
2023-04-04T11:58:33.231Z,8.04
2023-04-04T11:59:33.274Z,8.12
2023-04-04T12:00:33.223Z,8.23
2023-04-04T12:01:33.216Z,8.07
2023-04-04T12:02:33.250Z,8.12
2023-04-04T12:03:33.329Z,8.19
2023-04-04T12:04:33.755Z,8.28
2023-04-04T12:05:33.271Z,8.38
2023-04-04T12:06:33.159Z,8.45
2023-04-04T12:07:33.184Z,8.43
2023-04-04T12:08:33.120Z,8.29
2023-04-04T12:09:33.118Z,8.18
2023-04-04T12:10:33.099Z,8.30
2023-04-04T12:11:33.075Z,8.36
2023-04-04T12:12:33.077Z,8.38
2023-04-04T12:13:33.056Z,8.44
2023-04-04T12:14:33.098Z,8.53
2023-04-04T12:15:33.000Z,8.53
2023-04-04T12:16:33.624Z,8.48
2023-04-04T12:17:33.003Z,8.40
2023-04-04T12:18:32.992Z,8.34
2023-04-04T12:19:32.987Z,8.36
2023-04-04T12:20:32.989Z,8.28
2023-04-04T12:21:32.925Z,8.20
2023-04-04T12:22:32.967Z,8.19
2023-04-04T12:23:32.909Z,8.29
2023-04-04T12:24:32.934Z,8.38
2023-04-04T12:25:32.951Z,8.25
2023-04-04T12:26:32.896Z,8.29
2023-04-04T12:27:32.849Z,8.50
2023-04-04T12:28:32.866Z,8.65
2023-04-04T12:29:32.827Z,8.68
2023-04-04T12:30:32.871Z,8.74
2023-04-04T12:31:32.874Z,8.74
2023-04-04T12:32:32.838Z,8.73
2023-04-04T12:33:32.781Z,8.71
2023-04-04T12:34:32.777Z,8.73
2023-04-04T12:35:32.774Z,8.58
2023-04-04T12:36:32.770Z,8.47
2023-04-04T12:37:32.734Z,8.50
2023-04-04T12:38:32.744Z,8.53
2023-04-04T12:39:32.690Z,8.48
2023-04-04T12:40:32.747Z,8.59
2023-04-04T12:41:32.657Z,8.61
2023-04-04T12:42:32.684Z,8.52
2023-04-04T12:43:32.653Z,8.44
2023-04-04T12:44:32.646Z,8.43
2023-04-04T12:45:32.635Z,8.34
2023-04-04T12:46:32.763Z,8.36
2023-04-04T12:47:32.621Z,8.36
2023-04-04T12:48:32.598Z,8.55
2023-04-04T12:49:32.542Z,8.62
2023-04-04T12:50:32.582Z,8.73
2023-04-04T12:51:32.532Z,8.92
2023-04-04T12:52:32.917Z,9.01
2023-04-04T12:53:32.505Z,8.94
2023-04-04T12:54:32.560Z,8.96
2023-04-04T12:55:32.476Z,8.92
2023-04-04T12:56:32.518Z,8.95
2023-04-04T12:57:32.476Z,8.99
2023-04-04T12:58:34.292Z,9.04
2023-04-04T12:59:32.724Z,9.02
2023-04-04T13:00:32.459Z,9.05
2023-04-04T13:01:32.439Z,9.20
2023-04-04T13:02:32.468Z,9.33
2023-04-04T13:03:32.390Z,9.21
2023-04-04T13:04:32.450Z,9.08
2023-04-04T13:05:32.398Z,9.10
2023-04-04T13:06:32.434Z,9.17
2023-04-04T13:07:32.384Z,9.14
2023-04-04T13:08:32.358Z,8.99
2023-04-04T13:09:32.323Z,8.91
2023-04-04T13:10:32.314Z,8.87
2023-04-04T13:11:32.302Z,8.95
2023-04-04T13:12:32.267Z,8.89
2023-04-04T13:13:32.290Z,8.74
2023-04-04T13:14:32.245Z,8.61
2023-04-04T13:15:32.248Z,8.66
2023-04-04T13:16:32.385Z,8.80